Time;durP1;ratioP1;P1;durP2;ratioP2;P2;SDS_P1;SDS_P2;PMS_P1;PMS_P2;Temp;Humidity;BMP_temperature;BMP_pressure;BME280_temperature;BME280_humidity;BME280_pressure;Samples;Min_cycle;Max_cycle;Signal;HPM_P1;HPM_P2
2021/04/21 00:00:22;;;;;;;;;;;21.50;48.40;;;;;;1026533;28;19929;-72
2021/04/21 00:00:53;;;;;;;;;;;21.50;48.60;;;;;;1027913;28;19918;-72
2021/04/21 00:01:23;;;;;;;;;;;21.50;48.90;;;;;;1026160;28;20387;-72
2021/04/21 00:01:54;;;;;;;;;;;21.50;49.00;;;;;;1026368;28;20000;-72
2021/04/21 00:02:24;;;;;;;;;;;21.50;48.80;;;;;;1032455;28;19941;-72
2021/04/21 00:02:55;;;;;;;;;;;21.50;49.00;;;;;;1036747;28;19980;-72
2021/04/21 00:03:25;;;;;;;;;;;21.50;49.00;;;;;;1032175;28;20026;-72
2021/04/21 00:03:56;;;;;;;;;;;21.50;49.00;;;;;;1032597;28;19961;-72
2021/04/21 00:04:26;;;;;;;;;;;21.50;49.00;;;;;;1035260;28;20394;-72
2021/04/21 00:04:57;;;;;;;;;;;21.50;48.90;;;;;;1032709;28;19933;-72
2021/04/21 00:05:27;;;;;;;;;;;21.50;48.90;;;;;;1036710;28;19913;-72
2021/04/21 00:05:58;;;;;;;;;;;21.50;48.90;;;;;;1036688;28;19909;-72
2021/04/21 00:06:28;;;;;;;;;;;21.50;48.90;;;;;;1032212;28;20405;-72
2021/04/21 00:06:59;;;;;;;;;;;21.40;48.90;;;;;;1036824;28;20396;-72
2021/04/21 00:07:29;;;;;;;;;;;21.40;48.90;;;;;;1040673;28;19909;-72
2021/04/21 00:08:00;;;;;;;;;;;21.40;48.90;;;;;;1040364;28;20295;-73
2021/04/21 00:08:30;;;;;;;;;;;21.30;49.00;;;;;;1035713;28;19917;-72
2021/04/21 00:09:01;;;;;;;;;;;21.30;49.00;;;;;;1040457;28;20301;-72
2021/04/21 00:09:31;;;;;;;;;;;21.30;49.00;;;;;;1034829;28;19913;-72
2021/04/21 00:10:02;;;;;;;;;;;21.30;49.10;;;;;;1032667;28;20009;-72
2021/04/21 00:10:33;;;;;;;;;;;21.30;49.00;;;;;;1032477;28;20037;-72
2021/04/21 00:11:03;;;;;;;;;;;21.30;49.00;;;;;;1032664;28;20001;-72
2021/04/21 00:11:34;;;;;;;;;;;21.40;49.20;;;;;;1036355;28;19964;-72
2021/04/21 00:12:04;;;;;;;;;;;21.40;49.10;;;;;;1032521;28;19909;-72
2021/04/21 00:12:35;;;;;;;;;;;21.40;49.20;;;;;;1032565;28;20406;-72
2021/04/21 00:13:06;;;;;;;;;;;21.40;49.10;;;;;;1036209;28;19909;-72
2021/04/21 00:13:37;;;;;;;;;;;21.40;49.10;;;;;;1032630;28;19935;-72
2021/04/21 00:14:08;;;;;;;;;;;21.40;49.00;;;;;;1032591;28;19914;-72
2021/04/21 00:14:38;;;;;;;;;;;21.40;49.10;;;;;;1027947;28;19910;-72
2021/04/21 00:15:11;;;;;;;;;;;21.40;49.10;;;;;;1028565;28;19914;-72
2021/04/21 00:15:41;;;;;;;;;;;21.40;49.00;;;;;;1032436;28;19984;-72
2021/04/21 00:16:12;;;;;;;;;;;21.40;48.90;;;;;;1032472;28;19909;-72
2021/04/21 00:16:43;;;;;;;;;;;21.40;49.00;;;;;;1028784;28;20015;-72
2021/04/21 00:17:13;;;;;;;;;;;21.40;49.00;;;;;;1028684;28;20004;-72
2021/04/21 00:17:45;;;;;;;;;;;21.40;48.80;;;;;;1028618;28;19910;-72
2021/04/21 00:18:15;;;;;;;;;;;21.40;48.90;;;;;;1026515;28;20284;-72
2021/04/21 00:18:46;;;;;;;;;;;21.40;48.80;;;;;;1031945;28;19988;-72
2021/04/21 00:19:18;;;;;;;;;;;21.40;48.90;;;;;;1028271;28;19910;-72
2021/04/21 00:19:49;;;;;;;;;;;21.40;48.90;;;;;;1028732;28;19924;-72
2021/04/21 00:20:20;;;;;;;;;;;21.40;48.80;;;;;;1028927;28;19922;-72
2021/04/21 00:20:51;;;;;;;;;;;21.50;49.00;;;;;;1028418;28;20534;-72
2021/04/21 00:21:22;;;;;;;;;;;21.40;49.00;;;;;;1029017;28;20363;-72
2021/04/21 00:21:53;;;;;;;;;;;21.50;49.00;;;;;;1032541;28;19910;-72
2021/04/21 00:22:24;;;;;;;;;;;21.40;48.90;;;;;;1032824;28;19910;-72
2021/04/21 00:22:55;;;;;;;;;;;21.40;49.00;;;;;;1031046;28;20302;-72
2021/04/21 00:23:26;;;;;;;;;;;21.40;49.00;;;;;;1035271;28;20029;-72
2021/04/21 00:23:56;;;;;;;;;;;21.40;49.00;;;;;;1032767;28;19959;-72
2021/04/21 00:24:28;;;;;;;;;;;21.40;49.00;;;;;;1032619;28;19917;-72
2021/04/21 00:24:59;;;;;;;;;;;21.40;49.00;;;;;;1032475;28;20368;-72
2021/04/21 00:25:30;;;;;;;;;;;21.40;48.90;;;;;;1028424;28;19910;-72
2021/04/21 00:26:02;;;;;;;;;;;21.40;49.10;;;;;;1026694;28;19911;-72
2021/04/21 00:26:33;;;;;;;;;;;21.40;49.60;;;;;;1025601;28;20416;-72
2021/04/21 00:27:03;;;;;;;;;;;21.40;49.00;;;;;;1028788;28;19910;-72
2021/04/21 00:27:34;;;;;;;;;;;21.40;49.20;;;;;;1032269;28;20016;-72
2021/04/21 00:28:05;;;;;;;;;;;21.40;49.20;;;;;;1028742;28;19921;-73
2021/04/21 00:28:35;;;;;;;;;;;21.40;49.10;;;;;;1032014;28;19906;-72
2021/04/21 00:29:06;;;;;;;;;;;21.40;49.10;;;;;;1024275;29;19918;-72
2021/04/21 00:29:38;;;;;;;;;;;21.40;49.20;;;;;;1025332;28;20368;-72
2021/04/21 00:30:08;;;;;;;;;;;21.40;49.30;;;;;;1020491;28;19914;-73
2021/04/21 00:30:40;;;;;;;;;;;21.40;49.40;;;;;;1028633;28;19913;-72
2021/04/21 00:31:11;;;;;;;;;;;21.40;49.30;;;;;;1029070;28;19969;-71
2021/04/21 00:31:43;;;;;;;;;;;21.40;49.30;;;;;;1032528;28;19960;-72
2021/04/21 00:32:14;;;;;;;;;;;21.40;49.40;;;;;;1032551;28;19988;-72
2021/04/21 00:32:45;;;;;;;;;;;21.40;49.30;;;;;;1033289;28;19969;-72
2021/04/21 00:33:16;;;;;;;;;;;21.40;49.40;;;;;;1036536;28;19910;-72
2021/04/21 00:33:47;;;;;;;;;;;21.40;49.60;;;;;;1036327;28;20268;-72
2021/04/21 00:34:17;;;;;;;;;;;21.40;49.80;;;;;;1035892;28;19968;-72
2021/04/21 00:34:48;;;;;;;;;;;21.40;49.80;;;;;;1032442;28;19914;-72
2021/04/21 00:35:20;;;;;;;;;;;21.40;49.80;;;;;;1036020;28;19992;-72
2021/04/21 00:35:51;;;;;;;;;;;21.40;49.60;;;;;;1036352;28;19905;-71
2021/04/21 00:36:21;;;;;;;;;;;21.40;49.80;;;;;;1036186;28;19996;-72
2021/04/21 00:36:53;;;;;;;;;;;21.40;49.60;;;;;;1036015;28;19905;-72
2021/04/21 00:37:27;;;;;;;;;;;21.40;49.80;;;;;;1028446;28;19910;-72
2021/04/21 00:37:59;;;;;;;;;;;21.40;49.90;;;;;;1028997;28;20261;-72
2021/04/21 00:38:29;;;;;;;;;;;21.40;49.90;;;;;;1032595;28;19910;-72
2021/04/21 00:38:59;;;;;;;;;;;21.40;49.80;;;;;;1031806;28;19969;-72
2021/04/21 00:39:30;;;;;;;;;;;21.40;49.90;;;;;;1027801;28;20295;-72
2021/04/21 00:40:00;;;;;;;;;;;21.40;49.80;;;;;;1024292;28;19907;-72
2021/04/21 00:40:36;;;;;;;;;;;21.40;49.90;;;;;;1024566;28;20001;-72
2021/04/21 00:41:16;;;;;;;;;;;21.40;49.80;;;;;;1033194;28;20012;-72
2021/04/21 00:42:00;;;;;;;;;;;21.40;49.90;;;;;;1034436;28;19949;-72
2021/04/21 00:42:49;;;;;;;;;;;21.40;49.80;;;;;;1042860;28;19905;-72
2021/04/21 00:43:22;;;;;;;;;;;21.40;49.90;;;;;;1044230;28;19912;-72
2021/04/21 00:43:53;;;;;;;;;;;21.40;49.80;;;;;;1039796;28;20385;-72
2021/04/21 00:44:42;;;;;;;;;;;21.40;49.80;;;;;;1043452;28;19905;-72
2021/04/21 00:45:16;;;;;;;;;;;21.40;50.00;;;;;;1043900;28;19971;-72
2021/04/21 00:45:47;;;;;;;;;;;21.40;50.20;;;;;;1041955;28;20286;-72
2021/04/21 00:46:25;;;;;;;;;;;21.40;50.00;;;;;;1041847;28;19916;-72
2021/04/21 00:46:57;;;;;;;;;;;21.40;50.10;;;;;;1036472;28;20440;-71
2021/04/21 00:47:35;;;;;;;;;;;21.40;50.10;;;;;;1036392;28;20373;-72
2021/04/21 00:48:17;;;;;;;;;;;21.40;50.10;;;;;;1039500;28;19917;-72
2021/04/21 00:49:06;;;;;;;;;;;21.40;50.00;;;;;;1035978;28;19940;-72
2021/04/21 00:49:55;;;;;;;;;;;21.40;50.10;;;;;;1036728;28;19906;-72
2021/04/21 00:50:26;;;;;;;;;;;21.40;50.00;;;;;;1040504;28;20456;-72
2021/04/21 00:50:58;;;;;;;;;;;21.40;50.00;;;;;;1040591;28;19944;-72
2021/04/21 00:51:47;;;;;;;;;;;21.40;50.00;;;;;;1038738;28;19957;-71
2021/04/21 00:52:32;;;;;;;;;;;21.40;50.10;;;;;;1040142;28;19916;-72
2021/04/21 00:53:07;;;;;;;;;;;21.40;49.90;;;;;;1040629;28;20678;-72
2021/04/21 00:53:42;;;;;;;;;;;21.40;49.90;;;;;;1040467;28;19913;-72
2021/04/21 00:54:31;;;;;;;;;;;21.40;49.90;;;;;;1041570;28;20321;-72
2021/04/21 00:55:02;;;;;;;;;;;21.40;49.90;;;;;;1040482;28;20392;-71
2021/04/21 00:55:33;;;;;;;;;;;21.40;49.90;;;;;;1040477;28;19936;-72
2021/04/21 00:56:22;;;;;;;;;;;21.40;49.90;;;;;;1034950;28;20396;-72
2021/04/21 00:56:58;;;;;;;;;;;21.40;49.90;;;;;;1036335;28;19910;-72
2021/04/21 00:57:42;;;;;;;;;;;21.40;49.90;;;;;;1032322;28;19960;-72
2021/04/21 00:58:21;;;;;;;;;;;21.40;49.80;;;;;;1035987;28;19914;-72
2021/04/21 00:58:51;;;;;;;;;;;21.40;49.90;;;;;;1035749;28;20382;-71
2021/04/21 00:59:27;;;;;;;;;;;21.40;49.90;;;;;;1039464;28;19932;-71
2021/04/21 01:00:14;;;;;;;;;;;21.40;49.80;;;;;;1042200;28;19916;-72
2021/04/21 01:00:45;;;;;;;;;;;21.40;49.80;;;;;;1032026;28;19936;-72
2021/04/21 01:01:15;;;;;;;;;;;21.40;49.90;;;;;;1028789;28;20438;-72
2021/04/21 01:01:46;;;;;;;;;;;21.40;49.80;;;;;;1034620;28;19910;-72
2021/04/21 01:02:16;;;;;;;;;;;21.40;49.80;;;;;;1032476;28;19975;-72
2021/04/21 01:02:51;;;;;;;;;;;21.40;49.80;;;;;;1032001;28;19913;-72
2021/04/21 01:03:22;;;;;;;;;;;21.40;49.90;;;;;;1027784;28;20414;-72
2021/04/21 01:03:53;;;;;;;;;;;21.40;49.80;;;;;;1028381;28;20002;-72
2021/04/21 01:04:23;;;;;;;;;;;21.40;49.80;;;;;;1032338;28;20005;-72
2021/04/21 01:04:54;;;;;;;;;;;21.40;49.80;;;;;;1032336;28;20391;-72
2021/04/21 01:05:26;;;;;;;;;;;21.40;49.80;;;;;;1032294;28;19910;-71
2021/04/21 01:06:09;;;;;;;;;;;21.40;49.80;;;;;;1032424;28;19966;-72
2021/04/21 01:06:41;;;;;;;;;;;21.40;49.80;;;;;;1035917;28;20610;-72
2021/04/21 01:07:12;;;;;;;;;;;21.40;49.90;;;;;;1034435;28;20383;-72
2021/04/21 01:07:43;;;;;;;;;;;21.40;49.80;;;;;;1032374;28;19953;-72
2021/04/21 01:08:14;;;;;;;;;;;21.40;49.90;;;;;;1031661;28;19910;-72
2021/04/21 01:08:48;;;;;;;;;;;21.40;49.90;;;;;;1033482;28;20343;-72
2021/04/21 01:09:19;;;;;;;;;;;21.40;49.80;;;;;;1032997;28;20025;-72
2021/04/21 01:09:49;;;;;;;;;;;21.40;49.80;;;;;;1035660;28;19914;-72
2021/04/21 01:10:20;;;;;;;;;;;21.40;49.80;;;;;;1032113;28;19914;-72
2021/04/21 01:10:53;;;;;;;;;;;21.40;49.80;;;;;;1028397;28;20001;-72
2021/04/21 01:11:29;;;;;;;;;;;21.40;49.80;;;;;;1028802;28;19969;-72
2021/04/21 01:12:03;;;;;;;;;;;21.40;49.80;;;;;;1032264;28;20086;-71
2021/04/21 01:12:34;;;;;;;;;;;21.40;49.80;;;;;;1037840;28;19909;-72
2021/04/21 01:13:04;;;;;;;;;;;21.40;49.90;;;;;;1031662;28;20395;-72
2021/04/21 01:13:36;;;;;;;;;;;21.40;49.80;;;;;;1032180;28;19952;-71
2021/04/21 01:14:20;;;;;;;;;;;21.40;49.90;;;;;;1028402;28;19918;-72
2021/04/21 01:14:51;;;;;;;;;;;21.40;49.90;;;;;;1032242;28;20396;-72
2021/04/21 01:15:21;;;;;;;;;;;21.30;49.80;;;;;;1029076;28;19914;-72
2021/04/21 01:15:51;;;;;;;;;;;21.40;49.90;;;;;;1032354;28;19906;-72
2021/04/21 01:16:23;;;;;;;;;;;21.30;49.80;;;;;;1028104;28;20002;-72
2021/04/21 01:16:57;;;;;;;;;;;21.40;50.00;;;;;;1028418;28;19957;-72
2021/04/21 01:17:28;;;;;;;;;;;21.30;50.00;;;;;;1028168;28;19910;-72
2021/04/21 01:17:58;;;;;;;;;;;21.40;50.00;;;;;;1027092;28;20368;-72
2021/04/21 01:18:29;;;;;;;;;;;21.30;50.00;;;;;;1031277;28;21270;-72
2021/04/21 01:19:01;;;;;;;;;;;21.30;50.00;;;;;;1031298;28;19917;-72
2021/04/21 01:19:47;;;;;;;;;;;21.30;49.90;;;;;;1032453;28;19977;-72
2021/04/21 01:20:28;;;;;;;;;;;21.30;50.00;;;;;;1036295;28;19992;-71
2021/04/21 01:21:05;;;;;;;;;;;21.30;49.90;;;;;;1036012;28;20488;-71
2021/04/21 01:21:39;;;;;;;;;;;21.30;50.00;;;;;;1037132;28;19956;-72
2021/04/21 01:22:11;;;;;;;;;;;21.30;50.00;;;;;;1033442;28;19910;-71
2021/04/21 01:22:47;;;;;;;;;;;21.30;49.90;;;;;;1036247;28;19959;-72
2021/04/21 01:23:36;;;;;;;;;;;21.30;49.90;;;;;;1035841;28;19913;-71
2021/04/21 01:24:22;;;;;;;;;;;21.30;49.90;;;;;;1039614;28;20386;-71
2021/04/21 01:25:04;;;;;;;;;;;21.30;50.00;;;;;;1040401;28;19916;-72
2021/04/21 01:25:42;;;;;;;;;;;21.30;50.00;;;;;;1036076;28;19910;-72
2021/04/21 01:26:17;;;;;;;;;;;21.30;50.00;;;;;;1032140;28;20260;-72
2021/04/21 01:26:53;;;;;;;;;;;21.30;50.10;;;;;;1028069;28;19910;-71
2021/04/21 01:27:36;;;;;;;;;;;21.30;50.00;;;;;;1030674;28;20283;-72
2021/04/21 01:28:10;;;;;;;;;;;21.30;50.10;;;;;;1031849;28;20280;-72
2021/04/21 01:28:41;;;;;;;;;;;21.30;50.30;;;;;;1034064;28;19947;-72
2021/04/21 01:29:15;;;;;;;;;;;21.30;50.20;;;;;;1032279;28;19956;-72
2021/04/21 01:29:46;;;;;;;;;;;21.30;50.10;;;;;;1033307;28;20348;-72
2021/04/21 01:30:20;;;;;;;;;;;21.30;50.10;;;;;;1033013;28;19917;-72
2021/04/21 01:30:50;;;;;;;;;;;21.30;50.10;;;;;;1034362;28;19913;-72
2021/04/21 01:31:21;;;;;;;;;;;21.20;50.00;;;;;;1032648;28;19943;-71
2021/04/21 01:31:52;;;;;;;;;;;21.20;50.10;;;;;;1036184;28;19945;-71
2021/04/21 01:32:24;;;;;;;;;;;21.20;50.10;;;;;;1036249;28;19956;-71
2021/04/21 01:32:56;;;;;;;;;;;21.10;50.10;;;;;;1036470;28;19913;-71
2021/04/21 01:33:27;;;;;;;;;;;21.10;50.10;;;;;;1039230;28;19920;-71
2021/04/21 01:33:57;;;;;;;;;;;21.10;50.10;;;;;;1032648;28;19917;-72
2021/04/21 01:34:29;;;;;;;;;;;21.10;50.10;;;;;;1028456;28;19906;-72
2021/04/21 01:34:59;;;;;;;;;;;21.10;50.10;;;;;;1028322;28;19944;-72
2021/04/21 01:35:30;;;;;;;;;;;21.10;50.20;;;;;;1029567;28;19945;-71
2021/04/21 01:36:03;;;;;;;;;;;21.10;50.20;;;;;;1032401;28;19906;-72
2021/04/21 01:36:34;;;;;;;;;;;21.00;50.10;;;;;;1032096;28;20323;-72
2021/04/21 01:37:05;;;;;;;;;;;21.10;50.80;;;;;;1032757;28;19909;-71
2021/04/21 01:37:35;;;;;;;;;;;21.00;50.30;;;;;;1032229;28;20494;-71
2021/04/21 01:38:06;;;;;;;;;;;21.10;50.30;;;;;;1030632;28;19918;-72
2021/04/21 01:38:37;;;;;;;;;;;21.00;50.20;;;;;;1035799;28;19906;-71
2021/04/21 01:39:07;;;;;;;;;;;21.00;50.30;;;;;;1032499;28;19909;-72
2021/04/21 01:39:40;;;;;;;;;;;21.00;50.30;;;;;;1032253;28;19956;-71
2021/04/21 01:40:11;;;;;;;;;;;21.00;50.30;;;;;;1031262;28;19934;-72
2021/04/21 01:40:42;;;;;;;;;;;21.10;50.30;;;;;;1032165;28;20000;-71
2021/04/21 01:41:16;;;;;;;;;;;21.10;50.30;;;;;;1028815;28;19941;-72
2021/04/21 01:41:47;;;;;;;;;;;21.10;50.30;;;;;;1028915;28;19906;-72
2021/04/21 01:42:18;;;;;;;;;;;21.10;50.30;;;;;;1024666;28;19925;-72
2021/04/21 01:42:49;;;;;;;;;;;21.10;50.20;;;;;;1029957;28;20347;-72
2021/04/21 01:43:24;;;;;;;;;;;21.10;50.30;;;;;;1031713;28;19914;-71
2021/04/21 01:43:56;;;;;;;;;;;21.20;50.30;;;;;;1028948;28;19907;-71
2021/04/21 01:44:31;;;;;;;;;;;21.20;50.30;;;;;;1024707;28;20368;-72
2021/04/21 01:45:01;;;;;;;;;;;21.20;50.30;;;;;;1029617;28;19910;-72
2021/04/21 01:45:31;;;;;;;;;;;21.20;50.30;;;;;;1031976;28;20276;-72
2021/04/21 01:46:02;;;;;;;;;;;21.20;50.30;;;;;;1035100;28;19921;-72
2021/04/21 01:46:34;;;;;;;;;;;21.20;50.10;;;;;;1035379;28;19921;-72
2021/04/21 01:47:05;;;;;;;;;;;21.20;50.20;;;;;;1032726;28;19906;-72
2021/04/21 01:47:35;;;;;;;;;;;21.20;50.30;;;;;;1032425;28;20611;-71
2021/04/21 01:48:19;;;;;;;;;;;21.20;50.20;;;;;;1033014;28;19910;-72
2021/04/21 01:48:49;;;;;;;;;;;21.20;50.10;;;;;;1031502;28;19910;-72
2021/04/21 01:49:20;;;;;;;;;;;21.20;50.20;;;;;;1028066;28;20269;-72
2021/04/21 01:49:51;;;;;;;;;;;21.20;50.20;;;;;;1030112;28;19910;-72
2021/04/21 01:50:22;;;;;;;;;;;21.20;50.80;;;;;;1026047;28;19961;-72
2021/04/21 01:50:53;;;;;;;;;;;21.20;50.20;;;;;;1032198;28;19953;-72
2021/04/21 01:51:26;;;;;;;;;;;21.20;50.20;;;;;;1032084;28;19906;-72
2021/04/21 01:52:01;;;;;;;;;;;21.20;50.30;;;;;;1032126;28;19948;-72
2021/04/21 01:52:51;;;;;;;;;;;21.20;50.20;;;;;;1027933;28;19925;-72
2021/04/21 01:53:23;;;;;;;;;;;21.20;50.10;;;;;;1031108;28;19922;-72
2021/04/21 01:53:55;;;;;;;;;;;21.20;50.00;;;;;;1035610;28;20440;-72
2021/04/21 01:54:25;;;;;;;;;;;21.20;50.10;;;;;;1031977;28;20278;-72
2021/04/21 01:54:56;;;;;;;;;;;21.20;50.10;;;;;;1031878;28;19989;-72
2021/04/21 01:55:41;;;;;;;;;;;21.20;50.20;;;;;;1032061;28;20049;-72
2021/04/21 01:56:30;;;;;;;;;;;21.20;50.10;;;;;;1030109;28;19910;-72
2021/04/21 01:57:05;;;;;;;;;;;21.20;50.30;;;;;;1034313;28;19953;-72
2021/04/21 01:57:45;;;;;;;;;;;21.20;50.10;;;;;;1032100;28;19914;-72
2021/04/21 01:58:36;;;;;;;;;;;21.20;50.10;;;;;;1039639;28;19909;-72
2021/04/21 01:59:20;;;;;;;;;;;21.20;50.20;;;;;;1040125;28;19913;-72
2021/04/21 01:59:50;;;;;;;;;;;21.20;50.10;;;;;;1036234;28;19920;-72
2021/04/21 02:00:30;;;;;;;;;;;21.20;50.10;;;;;;1031636;28;19921;-72
2021/04/21 02:01:02;;;;;;;;;;;21.20;50.20;;;;;;1031031;28;20252;-72
2021/04/21 02:01:35;;;;;;;;;;;21.20;50.20;;;;;;1031028;28;19948;-72
2021/04/21 02:02:07;;;;;;;;;;;21.20;50.20;;;;;;1032044;28;19914;-72
2021/04/21 02:02:38;;;;;;;;;;;21.20;50.20;;;;;;1032050;28;19910;-72
2021/04/21 02:03:19;;;;;;;;;;;21.20;50.00;;;;;;1030833;28;19960;-72
2021/04/21 02:03:50;;;;;;;;;;;21.20;50.10;;;;;;1034380;28;19910;-72
2021/04/21 02:04:23;;;;;;;;;;;21.20;50.10;;;;;;1037595;28;19914;-72
2021/04/21 02:04:54;;;;;;;;;;;21.30;50.20;;;;;;1040127;28;19916;-72
2021/04/21 02:05:25;;;;;;;;;;;21.20;50.10;;;;;;1036434;28;19917;-72
2021/04/21 02:06:04;;;;;;;;;;;21.20;50.10;;;;;;1036684;28;19909;-72
2021/04/21 02:07:04;;;;;;;;;;;21.20;50.10;;;;;;1040116;28;19955;-72
2021/04/21 02:07:53;;;;;;;;;;;21.20;50.10;;;;;;1027534;28;19993;-72
2021/04/21 02:08:26;;;;;;;;;;;21.20;50.20;;;;;;1039558;28;19917;-72
2021/04/21 02:09:00;;;;;;;;;;;21.20;50.10;;;;;;1035809;28;19905;-72
2021/04/21 02:09:34;;;;;;;;;;;21.20;50.10;;;;;;1033376;28;19969;-71
2021/04/21 02:10:22;;;;;;;;;;;21.20;50.00;;;;;;1029349;28;20009;-71
2021/04/21 02:10:53;;;;;;;;;;;21.20;50.10;;;;;;1035551;28;19916;-72
2021/04/21 02:11:24;;;;;;;;;;;21.20;50.10;;;;;;1040650;28;20401;-72
2021/04/21 02:12:10;;;;;;;;;;;21.20;50.10;;;;;;1043049;28;19913;-72
2021/04/21 02:12:49;;;;;;;;;;;21.20;50.20;;;;;;1040438;28;19909;-72
2021/04/21 02:13:40;;;;;;;;;;;21.20;50.20;;;;;;1039509;28;19932;-72
2021/04/21 02:14:14;;;;;;;;;;;21.20;50.20;;;;;;1040181;28;19905;-72
2021/04/21 02:14:51;;;;;;;;;;;21.20;50.30;;;;;;1036067;28;19909;-72
2021/04/21 02:15:40;;;;;;;;;;;21.20;50.10;;;;;;1031157;28;19921;-72
2021/04/21 02:16:14;;;;;;;;;;;21.30;50.30;;;;;;1032025;28;20014;-72
2021/04/21 02:16:50;;;;;;;;;;;21.20;50.30;;;;;;1035527;28;19922;-72
2021/04/21 02:17:23;;;;;;;;;;;21.20;50.20;;;;;;1039855;28;19913;-72
2021/04/21 02:17:56;;;;;;;;;;;21.20;50.20;;;;;;1040156;28;19917;-72
2021/04/21 02:18:29;;;;;;;;;;;21.20;50.30;;;;;;1036931;28;20020;-72
2021/04/21 02:19:37;;;;;;;;;;;21.20;50.30;;;;;;1039465;28;19956;-72
2021/04/21 02:20:29;;;;;;;;;;;21.20;50.40;;;;;;1023736;29;19973;-72
2021/04/21 02:21:09;;;;;;;;;;;21.20;50.40;;;;;;1023469;29;19914;-72
2021/04/21 02:21:42;;;;;;;;;;;21.20;50.40;;;;;;1019228;29;20297;-72
2021/04/21 02:22:30;;;;;;;;;;;21.20;50.40;;;;;;1019848;29;19914;-72
2021/04/21 02:23:07;;;;;;;;;;;21.20;50.50;;;;;;1019848;29;19978;-72
2021/04/21 02:23:38;;;;;;;;;;;21.20;50.40;;;;;;1019343;29;19907;-72
2021/04/21 02:24:26;;;;;;;;;;;21.20;50.40;;;;;;1019881;28;19958;-71
2021/04/21 02:24:59;;;;;;;;;;;21.20;50.50;;;;;;1019703;29;19915;-72
2021/04/21 02:25:39;;;;;;;;;;;21.20;50.60;;;;;;1022673;29;20078;-72
2021/04/21 02:26:12;;;;;;;;;;;21.20;50.70;;;;;;1033249;28;19987;-71
2021/04/21 02:26:46;;;;;;;;;;;21.20;50.90;;;;;;1036311;28;19910;-71
2021/04/21 02:27:19;;;;;;;;;;;21.20;50.70;;;;;;1039544;28;20409;-72
2021/04/21 02:28:08;;;;;;;;;;;21.20;50.90;;;;;;1036090;28;19959;-72
2021/04/21 02:28:46;;;;;;;;;;;21.20;50.80;;;;;;1038604;28;19963;-71
2021/04/21 02:29:19;;;;;;;;;;;21.20;50.80;;;;;;1035941;28;19973;-71
2021/04/21 02:29:53;;;;;;;;;;;21.20;50.90;;;;;;1036128;28;20302;-71
2021/04/21 02:30:29;;;;;;;;;;;21.20;50.70;;;;;;1034940;28;19913;-71
2021/04/21 02:31:09;;;;;;;;;;;21.20;50.70;;;;;;1035152;28;20341;-71
2021/04/21 02:31:45;;;;;;;;;;;21.20;50.90;;;;;;1036210;28;19981;-71
2021/04/21 02:32:34;;;;;;;;;;;21.10;50.60;;;;;;1035953;28;20012;-71
2021/04/21 02:33:10;;;;;;;;;;;21.10;50.70;;;;;;1039623;28;19979;-72
2021/04/21 02:33:52;;;;;;;;;;;21.10;50.70;;;;;;1040059;28;19901;-71
2021/04/21 02:34:30;;;;;;;;;;;21.00;50.60;;;;;;1035755;28;20287;-71
2021/04/21 02:35:29;;;;;;;;;;;21.00;50.60;;;;;;1035558;28;20358;-71
2021/04/21 02:36:04;;;;;;;;;;;21.10;50.70;;;;;;1024491;28;19953;-71
2021/04/21 02:36:37;;;;;;;;;;;21.00;50.60;;;;;;1036188;28;19993;-71
2021/04/21 02:37:07;;;;;;;;;;;21.00;50.60;;;;;;1040017;28;20436;-72
2021/04/21 02:37:38;;;;;;;;;;;21.00;50.60;;;;;;1043266;28;19913;-72
2021/04/21 02:38:12;;;;;;;;;;;21.00;50.60;;;;;;1043848;28;19909;-71
2021/04/21 02:38:49;;;;;;;;;;;21.00;50.70;;;;;;1043831;28;20318;-71
2021/04/21 02:39:24;;;;;;;;;;;21.00;50.60;;;;;;1044131;28;20012;-71
2021/04/21 02:39:57;;;;;;;;;;;21.10;50.60;;;;;;1035684;28;19960;-71
2021/04/21 02:40:34;;;;;;;;;;;21.10;50.60;;;;;;1031748;28;19914;-71
2021/04/21 02:41:04;;;;;;;;;;;21.10;50.60;;;;;;1033800;28;19997;-71
2021/04/21 02:41:41;;;;;;;;;;;21.10;50.50;;;;;;1037226;28;20332;-71
2021/04/21 02:42:27;;;;;;;;;;;21.10;50.50;;;;;;1035989;28;19910;-71
2021/04/21 02:43:07;;;;;;;;;;;21.10;50.50;;;;;;1033251;28;20056;-72
2021/04/21 02:43:40;;;;;;;;;;;21.10;50.40;;;;;;1031637;28;19953;-72
2021/04/21 02:44:19;;;;;;;;;;;21.10;50.40;;;;;;1039303;28;19909;-71
2021/04/21 02:45:07;;;;;;;;;;;21.20;50.40;;;;;;1035373;28;19956;-71
2021/04/21 02:45:57;;;;;;;;;;;21.20;50.40;;;;;;1039893;28;20418;-71
2021/04/21 02:46:30;;;;;;;;;;;21.20;50.30;;;;;;1041647;28;19919;-71
2021/04/21 02:47:15;;;;;;;;;;;21.10;50.30;;;;;;1040417;28;20011;-71
2021/04/21 02:48:05;;;;;;;;;;;21.20;50.40;;;;;;1040024;28;19920;-71
2021/04/21 02:48:54;;;;;;;;;;;21.20;50.30;;;;;;1039420;28;19936;-71
2021/04/21 02:49:24;;;;;;;;;;;21.20;50.30;;;;;;1035801;28;19992;-71
2021/04/21 02:50:13;;;;;;;;;;;21.20;50.30;;;;;;1036180;28;20493;-71
2021/04/21 02:50:48;;;;;;;;;;;21.20;50.20;;;;;;1039945;28;20004;-71
2021/04/21 02:51:37;;;;;;;;;;;21.20;50.40;;;;;;1039162;28;19910;-71
2021/04/21 02:52:12;;;;;;;;;;;21.20;50.40;;;;;;1040071;28;19917;-71
2021/04/21 02:52:52;;;;;;;;;;;21.20;50.40;;;;;;1040140;28;19917;-71
2021/04/21 02:53:26;;;;;;;;;;;21.20;50.40;;;;;;1043426;28;19924;-71
2021/04/21 02:54:00;;;;;;;;;;;21.20;50.40;;;;;;1040112;28;19976;-72
2021/04/21 02:54:45;;;;;;;;;;;21.20;50.30;;;;;;1035923;28;19913;-71
2021/04/21 02:55:34;;;;;;;;;;;21.20;50.20;;;;;;1031673;28;19914;-71
2021/04/21 02:56:07;;;;;;;;;;;21.20;50.30;;;;;;1036337;28;19910;-71
2021/04/21 02:56:42;;;;;;;;;;;21.20;50.40;;;;;;1036189;28;20012;-72
2021/04/21 02:57:18;;;;;;;;;;;21.20;50.40;;;;;;1037849;28;19948;-71
2021/04/21 02:58:01;;;;;;;;;;;21.20;50.30;;;;;;1036070;28;19933;-71
2021/04/21 02:58:50;;;;;;;;;;;21.20;50.30;;;;;;1038299;28;19914;-71
2021/04/21 02:59:38;;;;;;;;;;;21.20;50.30;;;;;;1042199;28;20484;-71
2021/04/21 03:00:27;;;;;;;;;;;21.20;50.30;;;;;;1040148;28;20396;-72
2021/04/21 03:01:07;;;;;;;;;;;21.20;51.00;;;;;;1044248;28;19905;-71
2021/04/21 03:01:56;;;;;;;;;;;21.20;50.30;;;;;;1042469;28;19909;-71
2021/04/21 03:02:29;;;;;;;;;;;21.20;50.40;;;;;;1035829;28;20401;-72
2021/04/21 03:03:22;;;;;;;;;;;21.20;50.40;;;;;;1035687;28;19909;-72
2021/04/21 03:03:58;;;;;;;;;;;21.10;50.30;;;;;;1027540;28;20280;-71
2021/04/21 03:04:47;;;;;;;;;;;21.20;50.40;;;;;;1031588;28;19917;-71
2021/04/21 03:05:24;;;;;;;;;;;21.20;50.40;;;;;;1031477;28;19949;-71
2021/04/21 03:05:57;;;;;;;;;;;21.20;50.30;;;;;;1027931;28;20295;-71
2021/04/21 03:06:28;;;;;;;;;;;21.20;50.30;;;;;;1039163;28;19966;-71
2021/04/21 03:06:58;;;;;;;;;;;21.20;50.20;;;;;;1035842;28;20259;-72
2021/04/21 03:07:35;;;;;;;;;;;21.20;50.30;;;;;;1035845;28;19917;-71
2021/04/21 03:08:21;;;;;;;;;;;21.20;50.30;;;;;;1032427;28;19949;-72
2021/04/21 03:08:55;;;;;;;;;;;21.20;50.30;;;;;;1029165;28;20703;-71
2021/04/21 03:09:30;;;;;;;;;;;21.20;50.30;;;;;;1027642;28;19915;-72
2021/04/21 03:10:04;;;;;;;;;;;21.20;50.40;;;;;;1030030;28;19993;-71
2021/04/21 03:10:37;;;;;;;;;;;21.20;50.50;;;;;;1025525;28;19928;-72
2021/04/21 03:11:17;;;;;;;;;;;21.20;50.50;;;;;;1029865;28;19922;-71
2021/04/21 03:11:47;;;;;;;;;;;21.20;50.40;;;;;;1033902;28;19918;-71
2021/04/21 03:12:19;;;;;;;;;;;21.20;50.50;;;;;;1033211;28;20331;-71
2021/04/21 03:12:51;;;;;;;;;;;21.20;50.60;;;;;;1032010;28;19917;-71
2021/04/21 03:13:22;;;;;;;;;;;21.20;50.60;;;;;;1031232;28;19949;-71
2021/04/21 03:13:54;;;;;;;;;;;21.20;50.60;;;;;;1032370;28;19913;-71
2021/04/21 03:14:25;;;;;;;;;;;21.20;50.60;;;;;;1032424;28;20306;-71
2021/04/21 03:15:03;;;;;;;;;;;21.20;50.50;;;;;;1031808;28;20016;-71
2021/04/21 03:15:34;;;;;;;;;;;21.20;50.50;;;;;;1030930;28;19946;-71
2021/04/21 03:16:06;;;;;;;;;;;21.10;50.60;;;;;;1027713;28;20359;-72
2021/04/21 03:16:41;;;;;;;;;;;21.10;50.60;;;;;;1029081;28;19906;-71
2021/04/21 03:17:12;;;;;;;;;;;21.20;50.60;;;;;;1028782;28;19930;-72
2021/04/21 03:17:42;;;;;;;;;;;21.20;50.60;;;;;;1030306;28;19960;-72
2021/04/21 03:18:14;;;;;;;;;;;21.20;50.60;;;;;;1035264;28;19960;-72
2021/04/21 03:18:45;;;;;;;;;;;21.20;50.70;;;;;;1036263;28;19906;-72
2021/04/21 03:19:18;;;;;;;;;;;21.10;50.50;;;;;;1032185;28;19913;-72
2021/04/21 03:19:49;;;;;;;;;;;21.20;50.60;;;;;;1030384;28;20285;-72
2021/04/21 03:20:20;;;;;;;;;;;21.20;50.60;;;;;;1028087;28;19917;-72
2021/04/21 03:20:57;;;;;;;;;;;21.20;50.60;;;;;;1028365;28;19993;-72
2021/04/21 03:21:28;;;;;;;;;;;21.20;50.60;;;;;;1032648;28;19912;-72
2021/04/21 03:21:59;;;;;;;;;;;21.20;50.60;;;;;;1029003;28;19914;-72
2021/04/21 03:22:30;;;;;;;;;;;21.10;50.60;;;;;;1028741;28;20021;-72
2021/04/21 03:23:00;;;;;;;;;;;21.20;50.50;;;;;;1027436;28;19906;-72
2021/04/21 03:23:31;;;;;;;;;;;21.20;50.50;;;;;;1027905;28;20004;-72
2021/04/21 03:24:12;;;;;;;;;;;21.10;50.50;;;;;;1027922;28;19910;-72